createdAt,value
2018-02-05T00:03:04.038Z,-3.70
2018-02-05T00:07:48.278Z,-3.50
2018-02-05T00:12:31.618Z,-3.60
2018-02-05T00:17:15.735Z,-3.30
2018-02-05T00:21:59.045Z,-3.30
2018-02-05T00:26:42.446Z,-3.30
2018-02-05T00:31:26.600Z,-3.10
2018-02-05T00:36:10.047Z,-3.10
2018-02-05T00:40:53.418Z,-3.10
2018-02-05T00:45:37.505Z,-3.10
2018-02-05T00:50:20.884Z,-3.10
2018-02-05T00:55:04.225Z,-3.00
2018-02-05T00:59:47.582Z,-2.90
2018-02-05T01:04:30.890Z,-2.90
2018-02-05T01:09:14.230Z,-2.90
2018-02-05T01:13:57.580Z,-2.90
2018-02-05T01:18:40.963Z,-2.90
2018-02-05T01:23:25.014Z,-2.80
2018-02-05T01:28:09.127Z,-2.80
2018-02-05T01:32:52.450Z,-2.80
2018-02-05T01:37:35.774Z,-2.70
2018-02-05T01:42:19.106Z,-2.60
2018-02-05T01:47:02.407Z,-2.60
2018-02-05T01:51:45.752Z,-2.60
2018-02-05T01:56:29.129Z,-2.60
2018-02-05T02:01:12.449Z,-2.60
2018-02-05T02:05:56.188Z,-2.70
2018-02-05T02:10:39.515Z,-2.70
2018-02-05T02:15:23.598Z,-2.70
2018-02-05T02:20:06.886Z,-2.70
2018-02-05T02:24:50.214Z,-2.60
2018-02-05T02:29:33.809Z,-2.60
2018-02-05T02:34:17.094Z,-2.50
2018-02-05T02:39:00.419Z,-2.50
2018-02-05T02:43:43.770Z,-2.40
2018-02-05T02:48:27.110Z,-2.40
2018-02-05T02:53:10.470Z,-2.50
2018-02-05T02:57:53.790Z,-2.50
2018-02-05T03:02:37.164Z,-2.40
2018-02-05T03:07:20.569Z,-2.40
2018-02-05T03:12:04.814Z,-2.50
2018-02-05T03:16:48.907Z,-2.50
2018-02-05T03:21:32.231Z,-2.50
2018-02-05T03:26:15.587Z,-2.50
2018-02-05T03:30:59.239Z,-2.40
2018-02-05T03:35:42.585Z,-2.40
2018-02-05T03:40:25.927Z,-2.40
2018-02-05T03:45:09.253Z,-2.40
2018-02-05T03:49:52.580Z,-2.40
2018-02-05T03:54:35.919Z,-2.40
2018-02-05T03:59:19.230Z,-2.30
2018-02-05T04:04:03.337Z,-2.30
2018-02-05T04:08:46.695Z,-2.30
2018-02-05T04:13:30.034Z,-2.20
2018-02-05T04:18:13.360Z,-2.20
2018-02-05T04:22:56.683Z,-2.10
2018-02-05T04:27:40.040Z,-2.00
2018-02-05T04:32:23.853Z,-2.00
2018-02-05T04:37:07.940Z,-1.90
2018-02-05T04:41:51.605Z,-1.90
2018-02-05T04:46:34.886Z,-1.90
2018-02-05T04:51:18.997Z,-2.10
2018-02-05T04:56:02.360Z,-2.10
2018-02-05T05:00:45.654Z,-2.00
2018-02-05T05:05:29.021Z,-2.10
2018-02-05T05:10:12.366Z,-2.10
2018-02-05T05:14:55.778Z,-2.10
2018-02-05T05:19:39.129Z,-2.10
2018-02-05T05:24:22.451Z,-2.10
2018-02-05T05:29:05.811Z,-2.10
2018-02-05T05:33:49.190Z,-2.00
2018-02-05T05:38:32.526Z,-2.10
2018-02-05T05:43:15.844Z,-2.10
2018-02-05T05:47:59.138Z,-2.00
2018-02-05T05:52:42.546Z,-1.90
2018-02-05T05:57:25.863Z,-1.90
2018-02-05T06:02:09.195Z,-1.90
2018-02-05T06:06:52.549Z,-1.90
2018-02-05T06:11:36.792Z,-1.90
2018-02-05T06:16:20.181Z,-1.90
2018-02-05T06:21:03.514Z,-1.90
2018-02-05T06:25:47.778Z,-1.90
2018-02-05T06:30:32.518Z,-1.90
2018-02-05T06:35:15.911Z,-1.90
2018-02-05T06:39:59.244Z,-1.80
2018-02-05T06:44:43.335Z,-1.80
2018-02-05T06:49:27.035Z,-1.80
2018-02-05T06:54:22.050Z,-1.60
2018-02-05T06:59:05.405Z,-1.70
2018-02-05T07:03:49.566Z,-1.60
2018-02-05T07:08:33.678Z,-1.50
2018-02-05T07:13:17.022Z,-1.50
2018-02-05T07:18:00.456Z,-1.50
2018-02-05T07:22:43.830Z,-1.50
2018-02-05T07:27:27.208Z,-1.50
2018-02-05T07:32:10.628Z,-1.50
2018-02-05T07:36:53.991Z,-1.50
2018-02-05T07:41:37.393Z,-1.50
2018-02-05T07:46:20.715Z,-1.40
2018-02-05T07:51:04.390Z,-1.40
2018-02-05T07:55:47.714Z,-1.30
2018-02-05T08:00:31.025Z,-1.20
2018-02-05T08:05:14.363Z,-0.90
2018-02-05T08:09:57.716Z,-0.50
2018-02-05T08:14:41.125Z,-0.40
2018-02-05T08:19:24.432Z,-0.40
2018-02-05T08:24:07.774Z,-0.60
2018-02-05T08:28:51.102Z,-0.60
2018-02-05T08:33:34.467Z,-0.80
2018-02-05T08:38:18.592Z,-0.60
2018-02-05T08:43:01.926Z,-0.60
2018-02-05T08:47:45.324Z,-0.20
2018-02-05T08:52:29.435Z,-0.30
2018-02-05T08:57:12.755Z,-0.30
2018-02-05T09:01:56.078Z,-0.40
2018-02-05T09:06:39.443Z,-0.40
2018-02-05T09:11:22.772Z,-0.50
2018-02-05T09:16:06.125Z,-0.60
2018-02-05T09:20:49.478Z,-0.60
2018-02-05T09:25:32.828Z,-0.60
2018-02-05T09:30:16.182Z,-0.40
2018-02-05T09:34:59.536Z,-0.30
2018-02-05T09:39:43.619Z,0.20
2018-02-05T09:44:27.000Z,0.20
2018-02-05T09:49:10.327Z,0.30
2018-02-05T09:53:54.534Z,0.40
2018-02-05T09:58:37.884Z,0.20
2018-02-05T10:03:22.102Z,0.20
2018-02-05T10:08:05.479Z,0.20
2018-02-05T10:12:48.817Z,1.10
2018-02-05T10:17:32.947Z,1.70
2018-02-05T10:22:16.291Z,1.70
2018-02-05T10:26:59.640Z,1.70
2018-02-05T10:31:43.007Z,2.20
2018-02-05T10:36:26.653Z,2.30
2018-02-05T10:41:10.014Z,1.60
2018-02-05T10:45:53.343Z,1.00
2018-02-05T10:50:36.682Z,0.80
2018-02-05T10:55:20.020Z,0.60
2018-02-05T11:00:03.954Z,0.40
2018-02-05T11:04:48.096Z,1.00
2018-02-05T11:09:31.458Z,1.00
2018-02-05T11:14:15.538Z,2.00
2018-02-05T11:18:58.863Z,2.00
2018-02-05T11:23:42.257Z,2.20
2018-02-05T11:28:25.593Z,2.60
2018-02-05T11:33:08.929Z,3.20
2018-02-05T11:37:52.340Z,2.90
2018-02-05T11:42:35.731Z,1.60
2018-02-05T11:47:19.096Z,1.00
2018-02-05T11:52:03.209Z,0.10
2018-02-05T11:56:46.565Z,0.10
2018-02-05T12:01:30.030Z,0.00
2018-02-05T12:06:13.360Z,-0.10
2018-02-05T12:10:56.748Z,-0.20
2018-02-05T12:15:40.070Z,-0.30
2018-02-05T12:20:24.497Z,0.70
2018-02-05T12:25:07.882Z,0.70
2018-02-05T12:29:52.013Z,0.90
2018-02-05T12:34:35.370Z,0.90
2018-02-05T12:39:18.732Z,1.00
2018-02-05T12:44:02.891Z,1.00
2018-02-05T12:48:46.243Z,1.00
2018-02-05T12:53:29.589Z,1.00
2018-02-05T12:58:12.962Z,0.80
2018-02-05T13:08:18.837Z,0.20
2018-02-05T13:13:02.172Z,0.20
2018-02-05T13:17:45.564Z,0.40
2018-02-05T13:22:28.997Z,0.40
2018-02-05T13:27:12.392Z,0.60
2018-02-05T13:31:55.777Z,0.60
2018-02-05T13:36:39.115Z,0.70
2018-02-05T13:52:00.233Z,2.10
2018-02-05T13:56:44.351Z,1.40
2018-02-05T14:01:27.695Z,1.40
2018-02-05T14:06:11.101Z,1.10
2018-02-05T14:16:33.003Z,0.00
2018-02-05T14:21:16.442Z,-0.30
2018-02-05T14:26:11.810Z,-0.50
2018-02-05T14:30:55.964Z,-0.20
2018-02-05T14:35:40.103Z,0.00
2018-02-05T14:40:23.462Z,0.00
2018-02-05T14:45:07.016Z,0.20
2018-02-05T14:54:59.548Z,0.40
2018-02-05T14:59:42.950Z,0.10
2018-02-05T15:04:26.309Z,-0.10
2018-02-05T15:09:09.687Z,-0.40
2018-02-05T15:13:53.113Z,-0.60
2018-02-05T15:18:36.534Z,-0.70
2018-02-05T15:23:19.907Z,-0.70
2018-02-05T15:33:01.611Z,-1.00
2018-02-05T15:37:45.065Z,-1.20
2018-02-05T15:47:31.664Z,-2.00
2018-02-05T15:52:15.817Z,-2.30
2018-02-05T15:57:29.833Z,-2.30
2018-02-05T16:02:13.335Z,-2.50
2018-02-05T16:06:57.457Z,-3.10
2018-02-05T16:11:40.789Z,-3.10
2018-02-05T16:16:24.130Z,-3.30
2018-02-05T16:26:16.514Z,-3.50
2018-02-05T16:30:59.871Z,-3.50
2018-02-05T16:35:43.483Z,-3.60
2018-02-05T16:40:26.799Z,-3.40
2018-02-05T16:45:10.163Z,-3.20
2018-02-05T16:49:56.928Z,-2.90
2018-02-05T16:54:41.067Z,-2.60
2018-02-05T16:59:24.548Z,-2.60
2018-02-05T17:04:08.637Z,-2.30
2018-02-05T17:08:52.239Z,-2.30
2018-02-05T17:13:36.378Z,-2.10
2018-02-05T17:18:19.741Z,-2.10
2018-02-05T17:23:04.469Z,-2.10
2018-02-05T17:27:47.805Z,-2.10
2018-02-05T17:32:31.214Z,-2.10
2018-02-05T17:37:14.856Z,-2.10
2018-02-05T17:41:59.011Z,-2.10
2018-02-05T17:46:43.161Z,-2.10
2018-02-05T17:51:26.540Z,-2.10
2018-02-05T17:56:09.915Z,-2.00
2018-02-05T18:00:53.257Z,-2.00
2018-02-05T18:05:37.064Z,-2.00
2018-02-05T18:10:21.319Z,-2.10
2018-02-05T18:15:04.908Z,-2.10
2018-02-05T18:19:49.016Z,-2.30
2018-02-05T18:24:32.391Z,-2.30
2018-02-05T18:29:15.745Z,-2.40
2018-02-05T18:33:59.344Z,-2.40
2018-02-05T18:38:43.437Z,-2.60
2018-02-05T18:43:26.733Z,-2.60
2018-02-05T18:48:12.875Z,-2.90
2018-02-05T18:52:58.107Z,-2.90
2018-02-05T18:57:41.941Z,-3.10
2018-02-05T19:02:25.382Z,-3.20
2018-02-05T19:07:09.016Z,-3.50
2018-02-05T19:11:52.883Z,-4.10
2018-02-05T19:16:36.199Z,-4.50
2018-02-05T19:21:19.525Z,-4.80
2018-02-05T19:26:03.110Z,-5.10
2018-02-05T19:30:46.418Z,-5.30
2018-02-05T19:35:29.746Z,-5.30
2018-02-05T19:40:13.105Z,-5.40
2018-02-05T19:44:56.419Z,-5.60
2018-02-05T19:49:39.754Z,-5.50
2018-02-05T19:54:24.219Z,-5.60
2018-02-05T19:59:07.558Z,-5.70
2018-02-05T20:03:51.658Z,-5.80
2018-02-05T20:08:35.803Z,-5.70
2018-02-05T20:13:19.948Z,-5.70
2018-02-05T20:18:03.311Z,-5.60
2018-02-05T20:22:46.645Z,-5.70
2018-02-05T20:27:29.978Z,-5.70
2018-02-05T20:32:13.391Z,-5.90
2018-02-05T20:36:56.741Z,-6.10
2018-02-05T20:41:40.864Z,-6.50
2018-02-05T20:46:24.181Z,-6.50
2018-02-05T20:51:07.513Z,-6.50
2018-02-05T20:55:51.086Z,-6.40
2018-02-05T21:00:34.384Z,-6.20
2018-02-05T21:05:17.728Z,-6.00
2018-02-05T21:10:01.091Z,-5.90
2018-02-05T21:14:44.445Z,-5.70
2018-02-05T21:19:28.075Z,-5.60
2018-02-05T21:24:11.383Z,-5.80
2018-02-05T21:28:54.698Z,-6.20
2018-02-05T21:33:38.055Z,-6.50
2018-02-05T21:38:21.407Z,-6.80
2018-02-05T21:43:04.737Z,-7.00
2018-02-05T21:47:48.250Z,-7.10
2018-02-05T21:52:31.851Z,-7.20
2018-02-05T21:57:15.930Z,-7.00
2018-02-05T22:01:59.295Z,-7.00
2018-02-05T22:06:42.667Z,-6.70
2018-02-05T22:11:26.753Z,-6.70
2018-02-05T22:16:10.091Z,-6.80
2018-02-05T22:20:53.757Z,-6.70
2018-02-05T22:25:37.048Z,-6.70
2018-02-05T22:30:20.489Z,-6.70
2018-02-05T22:35:03.786Z,-6.80
2018-02-05T22:39:47.142Z,-7.00
2018-02-05T22:44:31.262Z,-7.20
2018-02-05T22:49:14.628Z,-7.20
2018-02-05T22:53:58.333Z,-7.40
2018-02-05T22:58:41.641Z,-7.60
2018-02-05T23:03:25.761Z,-7.90
2018-02-05T23:08:09.083Z,-7.90
2018-02-05T23:12:52.423Z,-7.90
2018-02-05T23:17:36.520Z,-8.00
2018-02-05T23:22:20.119Z,-8.10
2018-02-05T23:27:03.418Z,-8.10
2018-02-05T23:31:47.543Z,-8.00
2018-02-05T23:36:30.900Z,-8.00
2018-02-05T23:41:14.222Z,-8.10
2018-02-05T23:45:57.578Z,-8.20
2018-02-05T23:50:40.894Z,-8.10
2018-02-05T23:55:24.212Z,-8.20
